sensor_id;sensor_type;location;lat;lon;timestamp;P1;durP1;ratioP1;P2;durP2;ratioP2
13797;SDS011;6970;51.340;3.240;2023-10-09T00:00:19;8.20;;;5.80;;
13797;SDS011;6970;51.340;3.240;2023-10-09T00:03:06;11.33;;;6.10;;
13797;SDS011;6970;51.340;3.240;2023-10-09T00:05:34;9.43;;;5.97;;
13797;SDS011;6970;51.340;3.240;2023-10-09T00:08:07;9.00;;;7.13;;
13797;SDS011;6970;51.340;3.240;2023-10-09T00:10:39;11.10;;;6.43;;
13797;SDS011;6970;51.340;3.240;2023-10-09T00:13:29;11.33;;;6.53;;
13797;SDS011;6970;51.340;3.240;2023-10-09T00:16:05;8.50;;;5.77;;
13797;SDS011;6970;51.340;3.240;2023-10-09T00:21:17;12.17;;;5.83;;
13797;SDS011;6970;51.340;3.240;2023-10-09T00:23:52;9.57;;;6.00;;
13797;SDS011;6970;51.340;3.240;2023-10-09T00:26:23;11.80;;;7.10;;
13797;SDS011;6970;51.340;3.240;2023-10-09T00:31:23;12.70;;;6.87;;
13797;SDS011;6970;51.340;3.240;2023-10-09T00:34:00;10.33;;;5.90;;
13797;SDS011;6970;51.340;3.240;2023-10-09T00:39:19;11.43;;;6.07;;
13797;SDS011;6970;51.340;3.240;2023-10-09T00:49:53;10.30;;;6.27;;
13797;SDS011;6970;51.340;3.240;2023-10-09T00:52:36;14.00;;;6.17;;
13797;SDS011;6970;51.340;3.240;2023-10-09T00:55:21;8.07;;;5.70;;
13797;SDS011;6970;51.340;3.240;2023-10-09T00:57:57;11.30;;;6.03;;
13797;SDS011;6970;51.340;3.240;2023-10-09T01:00:26;14.00;;;5.90;;
13797;SDS011;6970;51.340;3.240;2023-10-09T01:03:12;9.13;;;5.60;;
13797;SDS011;6970;51.340;3.240;2023-10-09T01:08:38;10.97;;;5.70;;
13797;SDS011;6970;51.340;3.240;2023-10-09T01:11:16;16.10;;;6.27;;
13797;SDS011;6970;51.340;3.240;2023-10-09T01:13:50;10.87;;;6.27;;
13797;SDS011;6970;51.340;3.240;2023-10-09T01:16:20;11.47;;;6.33;;
13797;SDS011;6970;51.340;3.240;2023-10-09T01:21:27;11.90;;;5.80;;
13797;SDS011;6970;51.340;3.240;2023-10-09T01:23:59;10.10;;;5.37;;
13797;SDS011;6970;51.340;3.240;2023-10-09T01:29:16;10.23;;;5.27;;
13797;SDS011;6970;51.340;3.240;2023-10-09T01:31:50;9.47;;;5.30;;
13797;SDS011;6970;51.340;3.240;2023-10-09T01:34:25;10.97;;;5.47;;
13797;SDS011;6970;51.340;3.240;2023-10-09T01:37:18;11.80;;;5.53;;
13797;SDS011;6970;51.340;3.240;2023-10-09T01:39:54;11.47;;;6.03;;
13797;SDS011;6970;51.340;3.240;2023-10-09T01:42:42;9.17;;;4.97;;
13797;SDS011;6970;51.340;3.240;2023-10-09T01:50:31;13.37;;;5.80;;
13797;SDS011;6970;51.340;3.240;2023-10-09T01:53:04;14.17;;;5.90;;
13797;SDS011;6970;51.340;3.240;2023-10-09T01:55:34;11.23;;;5.60;;
13797;SDS011;6970;51.340;3.240;2023-10-09T01:58:06;12.57;;;6.13;;
13797;SDS011;6970;51.340;3.240;2023-10-09T02:00:52;11.47;;;5.77;;
13797;SDS011;6970;51.340;3.240;2023-10-09T02:03:25;15.17;;;5.93;;
13797;SDS011;6970;51.340;3.240;2023-10-09T02:05:59;12.83;;;5.80;;
13797;SDS011;6970;51.340;3.240;2023-10-09T02:08:28;13.30;;;6.37;;
13797;SDS011;6970;51.340;3.240;2023-10-09T02:10:58;12.83;;;6.37;;
13797;SDS011;6970;51.340;3.240;2023-10-09T02:13:28;12.43;;;6.23;;
13797;SDS011;6970;51.340;3.240;2023-10-09T02:15:56;11.07;;;6.30;;
13797;SDS011;6970;51.340;3.240;2023-10-09T02:18:42;10.17;;;6.13;;
13797;SDS011;6970;51.340;3.240;2023-10-09T02:21:31;8.47;;;6.53;;
13797;SDS011;6970;51.340;3.240;2023-10-09T02:24:08;15.27;;;7.13;;
13797;SDS011;6970;51.340;3.240;2023-10-09T02:26:53;15.60;;;7.77;;
13797;SDS011;6970;51.340;3.240;2023-10-09T02:29:21;11.50;;;7.93;;
13797;SDS011;6970;51.340;3.240;2023-10-09T02:31:50;13.13;;;9.00;;
13797;SDS011;6970;51.340;3.240;2023-10-09T02:34:19;15.10;;;9.43;;
13797;SDS011;6970;51.340;3.240;2023-10-09T02:36:55;15.97;;;9.00;;
13797;SDS011;6970;51.340;3.240;2023-10-09T02:39:35;19.63;;;8.57;;
13797;SDS011;6970;51.340;3.240;2023-10-09T02:47:24;14.90;;;9.13;;
13797;SDS011;6970;51.340;3.240;2023-10-09T02:49:57;16.10;;;9.30;;
13797;SDS011;6970;51.340;3.240;2023-10-09T02:52:33;15.50;;;8.73;;
13797;SDS011;6970;51.340;3.240;2023-10-09T02:55:10;18.97;;;9.13;;
13797;SDS011;6970;51.340;3.240;2023-10-09T03:03:10;16.47;;;9.10;;
13797;SDS011;6970;51.340;3.240;2023-10-09T03:05:39;14.90;;;8.80;;
13797;SDS011;6970;51.340;3.240;2023-10-09T03:08:09;11.70;;;8.20;;
13797;SDS011;6970;51.340;3.240;2023-10-09T03:13:09;17.27;;;8.27;;
13797;SDS011;6970;51.340;3.240;2023-10-09T03:18:09;16.77;;;8.67;;
13797;SDS011;6970;51.340;3.240;2023-10-09T03:25:43;15.33;;;8.47;;
13797;SDS011;6970;51.340;3.240;2023-10-09T03:28:14;14.03;;;8.87;;
13797;SDS011;6970;51.340;3.240;2023-10-09T03:30:44;13.27;;;8.97;;
13797;SDS011;6970;51.340;3.240;2023-10-09T03:33:16;19.13;;;8.97;;
13797;SDS011;6970;51.340;3.240;2023-10-09T03:35:45;16.93;;;9.67;;
13797;SDS011;6970;51.340;3.240;2023-10-09T03:38:13;21.57;;;10.60;;
13797;SDS011;6970;51.340;3.240;2023-10-09T03:40:46;16.63;;;9.60;;
13797;SDS011;6970;51.340;3.240;2023-10-09T03:43:18;13.87;;;9.97;;
13797;SDS011;6970;51.340;3.240;2023-10-09T03:45:48;22.57;;;10.97;;
13797;SDS011;6970;51.340;3.240;2023-10-09T03:48:20;15.47;;;10.17;;
13797;SDS011;6970;51.340;3.240;2023-10-09T03:50:51;16.30;;;10.40;;
13797;SDS011;6970;51.340;3.240;2023-10-09T03:53:38;18.50;;;11.60;;
13797;SDS011;6970;51.340;3.240;2023-10-09T03:56:09;16.37;;;11.93;;
13797;SDS011;6970;51.340;3.240;2023-10-09T03:58:42;18.10;;;13.40;;
13797;SDS011;6970;51.340;3.240;2023-10-09T04:04:05;20.77;;;14.30;;
13797;SDS011;6970;51.340;3.240;2023-10-09T04:09:21;18.17;;;13.33;;
13797;SDS011;6970;51.340;3.240;2023-10-09T04:11:56;20.33;;;13.93;;
13797;SDS011;6970;51.340;3.240;2023-10-09T04:14:44;21.70;;;13.27;;
13797;SDS011;6970;51.340;3.240;2023-10-09T04:17:21;15.87;;;12.60;;
13797;SDS011;6970;51.340;3.240;2023-10-09T04:20:03;14.90;;;13.00;;
13797;SDS011;6970;51.340;3.240;2023-10-09T04:22:47;19.53;;;14.70;;
13797;SDS011;6970;51.340;3.240;2023-10-09T04:25:17;22.07;;;14.73;;
13797;SDS011;6970;51.340;3.240;2023-10-09T04:30:48;21.13;;;15.73;;
13797;SDS011;6970;51.340;3.240;2023-10-09T04:33:23;20.77;;;16.20;;
13797;SDS011;6970;51.340;3.240;2023-10-09T04:36:05;21.73;;;15.80;;
13797;SDS011;6970;51.340;3.240;2023-10-09T04:38:53;31.13;;;19.37;;
13797;SDS011;6970;51.340;3.240;2023-10-09T04:41:30;23.23;;;17.80;;
13797;SDS011;6970;51.340;3.240;2023-10-09T04:44:10;23.83;;;17.63;;
13797;SDS011;6970;51.340;3.240;2023-10-09T04:46:47;27.63;;;17.83;;
13797;SDS011;6970;51.340;3.240;2023-10-09T04:49:45;26.47;;;18.07;;
13797;SDS011;6970;51.340;3.240;2023-10-09T04:52:18;27.40;;;18.43;;
13797;SDS011;6970;51.340;3.240;2023-10-09T04:54:58;32.57;;;20.57;;
13797;SDS011;6970;51.340;3.240;2023-10-09T05:00:14;29.47;;;19.57;;
13797;SDS011;6970;51.340;3.240;2023-10-09T05:02:58;28.70;;;20.90;;
13797;SDS011;6970;51.340;3.240;2023-10-09T05:05:43;36.20;;;21.03;;
13797;SDS011;6970;51.340;3.240;2023-10-09T05:13:27;25.20;;;19.43;;
13797;SDS011;6970;51.340;3.240;2023-10-09T05:16:18;33.83;;;18.63;;
13797;SDS011;6970;51.340;3.240;2023-10-09T05:18:50;23.97;;;18.20;;
13797;SDS011;6970;51.340;3.240;2023-10-09T05:21:33;27.03;;;19.17;;
13797;SDS011;6970;51.340;3.240;2023-10-09T05:24:12;24.33;;;18.17;;
13797;SDS011;6970;51.340;3.240;2023-10-09T05:26:43;28.10;;;16.37;;
13797;SDS011;6970;51.340;3.240;2023-10-09T05:29:21;26.50;;;18.30;;
13797;SDS011;6970;51.340;3.240;2023-10-09T05:31:57;29.07;;;17.47;;
13797;SDS011;6970;51.340;3.240;2023-10-09T05:34:41;22.73;;;14.63;;
13797;SDS011;6970;51.340;3.240;2023-10-09T05:37:31;23.67;;;16.50;;
13797;SDS011;6970;51.340;3.240;2023-10-09T05:40:03;30.13;;;16.17;;
13797;SDS011;6970;51.340;3.240;2023-10-09T05:42:44;21.83;;;15.17;;
13797;SDS011;6970;51.340;3.240;2023-10-09T05:45:12;26.00;;;15.80;;
13797;SDS011;6970;51.340;3.240;2023-10-09T05:47:46;23.63;;;16.00;;
13797;SDS011;6970;51.340;3.240;2023-10-09T05:50:21;28.23;;;20.37;;
13797;SDS011;6970;51.340;3.240;2023-10-09T05:52:52;29.00;;;19.60;;
13797;SDS011;6970;51.340;3.240;2023-10-09T05:55:25;31.70;;;22.87;;
13797;SDS011;6970;51.340;3.240;2023-10-09T05:58:11;34.00;;;25.07;;
13797;SDS011;6970;51.340;3.240;2023-10-09T06:03:48;30.73;;;24.97;;
13797;SDS011;6970;51.340;3.240;2023-10-09T06:06:22;32.90;;;25.03;;
13797;SDS011;6970;51.340;3.240;2023-10-09T06:09:14;34.63;;;26.80;;
13797;SDS011;6970;51.340;3.240;2023-10-09T06:11:49;38.67;;;27.53;;
13797;SDS011;6970;51.340;3.240;2023-10-09T06:14:22;40.87;;;27.30;;
13797;SDS011;6970;51.340;3.240;2023-10-09T06:16:58;42.13;;;28.87;;
13797;SDS011;6970;51.340;3.240;2023-10-09T06:22:12;51.13;;;31.30;;
13797;SDS011;6970;51.340;3.240;2023-10-09T06:24:55;40.90;;;28.30;;
13797;SDS011;6970;51.340;3.240;2023-10-09T06:29:57;43.50;;;31.37;;
13797;SDS011;6970;51.340;3.240;2023-10-09T06:32:45;42.33;;;32.80;;
13797;SDS011;6970;51.340;3.240;2023-10-09T06:35:35;45.07;;;33.57;;
13797;SDS011;6970;51.340;3.240;2023-10-09T06:38:04;47.93;;;34.23;;
13797;SDS011;6970;51.340;3.240;2023-10-09T06:40:50;44.57;;;33.27;;
13797;SDS011;6970;51.340;3.240;2023-10-09T06:43:23;35.87;;;29.37;;
13797;SDS011;6970;51.340;3.240;2023-10-09T06:45:59;44.97;;;31.50;;
13797;SDS011;6970;51.340;3.240;2023-10-09T06:48:47;40.00;;;31.73;;
13797;SDS011;6970;51.340;3.240;2023-10-09T06:53:59;46.60;;;31.70;;
13797;SDS011;6970;51.340;3.240;2023-10-09T06:56:34;46.80;;;32.30;;
13797;SDS011;6970;51.340;3.240;2023-10-09T06:59:01;35.97;;;29.37;;
13797;SDS011;6970;51.340;3.240;2023-10-09T07:01:46;36.80;;;29.03;;
13797;SDS011;6970;51.340;3.240;2023-10-09T07:04:17;36.97;;;31.10;;
13797;SDS011;6970;51.340;3.240;2023-10-09T07:06:57;39.33;;;29.77;;
13797;SDS011;6970;51.340;3.240;2023-10-09T07:09:25;40.40;;;31.03;;
13797;SDS011;6970;51.340;3.240;2023-10-09T07:12:33;46.23;;;27.97;;
13797;SDS011;6970;51.340;3.240;2023-10-09T07:15:00;43.77;;;30.53;;
13797;SDS011;6970;51.340;3.240;2023-10-09T07:17:53;40.73;;;27.73;;
13797;SDS011;6970;51.340;3.240;2023-10-09T07:23:06;43.10;;;29.90;;
13797;SDS011;6970;51.340;3.240;2023-10-09T07:25:42;35.93;;;28.17;;
13797;SDS011;6970;51.340;3.240;2023-10-09T07:31:20;34.77;;;26.83;;
13797;SDS011;6970;51.340;3.240;2023-10-09T07:34:09;36.60;;;28.93;;
13797;SDS011;6970;51.340;3.240;2023-10-09T07:36:56;36.77;;;27.33;;
13797;SDS011;6970;51.340;3.240;2023-10-09T07:39:23;32.93;;;26.30;;
13797;SDS011;6970;51.340;3.240;2023-10-09T07:41:54;38.17;;;28.07;;
13797;SDS011;6970;51.340;3.240;2023-10-09T07:49:55;33.40;;;24.30;;
13797;SDS011;6970;51.340;3.240;2023-10-09T07:54:57;31.47;;;23.73;;
13797;SDS011;6970;51.340;3.240;2023-10-09T07:57:35;31.80;;;23.93;;
13797;SDS011;6970;51.340;3.240;2023-10-09T08:03:00;28.27;;;21.57;;
13797;SDS011;6970;51.340;3.240;2023-10-09T08:11:13;27.50;;;20.93;;
13797;SDS011;6970;51.340;3.240;2023-10-09T08:14:00;27.80;;;20.87;;
13797;SDS011;6970;51.340;3.240;2023-10-09T08:16:28;33.17;;;19.80;;
13797;SDS011;6970;51.340;3.240;2023-10-09T08:19:05;23.40;;;17.23;;
13797;SDS011;6970;51.340;3.240;2023-10-09T08:27:26;25.27;;;17.70;;
13797;SDS011;6970;51.340;3.240;2023-10-09T08:30:04;31.80;;;19.77;;
13797;SDS011;6970;51.340;3.240;2023-10-09T08:35:37;19.93;;;15.93;;
13797;SDS011;6970;51.340;3.240;2023-10-09T08:38:15;24.67;;;16.30;;
13797;SDS011;6970;51.340;3.240;2023-10-09T08:40:55;24.17;;;13.80;;
13797;SDS011;6970;51.340;3.240;2023-10-09T08:43:25;26.60;;;16.33;;
13797;SDS011;6970;51.340;3.240;2023-10-09T08:45:57;24.43;;;13.70;;
13797;SDS011;6970;51.340;3.240;2023-10-09T08:48:29;24.40;;;12.50;;
13797;SDS011;6970;51.340;3.240;2023-10-09T08:50:57;18.57;;;9.53;;
13797;SDS011;6970;51.340;3.240;2023-10-09T08:53:24;16.90;;;8.70;;
13797;SDS011;6970;51.340;3.240;2023-10-09T08:55:54;15.93;;;7.90;;
13797;SDS011;6970;51.340;3.240;2023-10-09T08:58:23;17.47;;;8.83;;
13797;SDS011;6970;51.340;3.240;2023-10-09T09:01:04;16.17;;;8.70;;
13797;SDS011;6970;51.340;3.240;2023-10-09T09:03:38;13.27;;;8.93;;
13797;SDS011;6970;51.340;3.240;2023-10-09T09:06:07;16.40;;;8.67;;
13797;SDS011;6970;51.340;3.240;2023-10-09T09:08:34;19.00;;;8.93;;
13797;SDS011;6970;51.340;3.240;2023-10-09T09:11:11;16.67;;;8.50;;
13797;SDS011;6970;51.340;3.240;2023-10-09T09:13:44;16.10;;;7.80;;
13797;SDS011;6970;51.340;3.240;2023-10-09T09:16:20;12.47;;;7.80;;
13797;SDS011;6970;51.340;3.240;2023-10-09T09:18:52;19.70;;;8.83;;
13797;SDS011;6970;51.340;3.240;2023-10-09T09:21:30;14.47;;;8.60;;
13797;SDS011;6970;51.340;3.240;2023-10-09T09:24:06;15.90;;;8.77;;
13797;SDS011;6970;51.340;3.240;2023-10-09T09:26:50;16.73;;;8.13;;
13797;SDS011;6970;51.340;3.240;2023-10-09T09:32:06;9.73;;;7.07;;
13797;SDS011;6970;51.340;3.240;2023-10-09T09:34:48;11.37;;;6.83;;
13797;SDS011;6970;51.340;3.240;2023-10-09T09:37:28;13.90;;;7.20;;
13797;SDS011;6970;51.340;3.240;2023-10-09T09:40:05;14.77;;;7.00;;
13797;SDS011;6970;51.340;3.240;2023-10-09T09:42:45;13.20;;;7.40;;
13797;SDS011;6970;51.340;3.240;2023-10-09T09:45:14;15.50;;;6.87;;
13797;SDS011;6970;51.340;3.240;2023-10-09T09:47:45;14.33;;;7.10;;
13797;SDS011;6970;51.340;3.240;2023-10-09T09:50:22;12.60;;;7.20;;
13797;SDS011;6970;51.340;3.240;2023-10-09T09:52:53;14.77;;;7.63;;
13797;SDS011;6970;51.340;3.240;2023-10-09T09:55:24;12.73;;;8.00;;
13797;SDS011;6970;51.340;3.240;2023-10-09T09:57:57;17.00;;;7.57;;
13797;SDS011;6970;51.340;3.240;2023-10-09T10:00:28;17.20;;;7.67;;
13797;SDS011;6970;51.340;3.240;2023-10-09T10:03:24;18.97;;;7.90;;
13797;SDS011;6970;51.340;3.240;2023-10-09T10:06:06;16.57;;;7.40;;
13797;SDS011;6970;51.340;3.240;2023-10-09T10:11:18;17.50;;;6.97;;
13797;SDS011;6970;51.340;3.240;2023-10-09T10:14:14;19.03;;;7.27;;
13797;SDS011;6970;51.340;3.240;2023-10-09T10:19:59;10.93;;;6.60;;
13797;SDS011;6970;51.340;3.240;2023-10-09T10:22:48;13.83;;;6.13;;
13797;SDS011;6970;51.340;3.240;2023-10-09T10:25:34;13.00;;;6.70;;
13797;SDS011;6970;51.340;3.240;2023-10-09T10:28:30;7.67;;;5.70;;
13797;SDS011;6970;51.340;3.240;2023-10-09T10:31:09;12.10;;;5.80;;
13797;SDS011;6970;51.340;3.240;2023-10-09T10:36:27;9.90;;;5.80;;
13797;SDS011;6970;51.340;3.240;2023-10-09T10:39:07;13.43;;;5.73;;
13797;SDS011;6970;51.340;3.240;2023-10-09T10:41:55;12.53;;;6.57;;
13797;SDS011;6970;51.340;3.240;2023-10-09T10:44:29;11.40;;;5.60;;
13797;SDS011;6970;51.340;3.240;2023-10-09T10:47:01;8.23;;;5.07;;
13797;SDS011;6970;51.340;3.240;2023-10-09T10:49:29;6.80;;;4.63;;
13797;SDS011;6970;51.340;3.240;2023-10-09T10:52:07;8.53;;;5.20;;
13797;SDS011;6970;51.340;3.240;2023-10-09T10:54:45;10.40;;;5.27;;
13797;SDS011;6970;51.340;3.240;2023-10-09T10:57:22;8.10;;;4.60;;
13797;SDS011;6970;51.340;3.240;2023-10-09T10:59:56;6.73;;;5.33;;
13797;SDS011;6970;51.340;3.240;2023-10-09T11:02:39;10.00;;;6.03;;
13797;SDS011;6970;51.340;3.240;2023-10-09T11:05:09;13.27;;;5.70;;
13797;SDS011;6970;51.340;3.240;2023-10-09T11:07:57;9.80;;;5.53;;
13797;SDS011;6970;51.340;3.240;2023-10-09T11:10:25;6.60;;;5.13;;
13797;SDS011;6970;51.340;3.240;2023-10-09T11:12:57;8.60;;;4.80;;
13797;SDS011;6970;51.340;3.240;2023-10-09T11:15:38;8.43;;;5.30;;
13797;SDS011;6970;51.340;3.240;2023-10-09T11:18:13;11.90;;;5.53;;
13797;SDS011;6970;51.340;3.240;2023-10-09T11:20:54;9.03;;;5.10;;
13797;SDS011;6970;51.340;3.240;2023-10-09T11:23:30;8.60;;;5.50;;
13797;SDS011;6970;51.340;3.240;2023-10-09T11:26:05;8.70;;;4.50;;
13797;SDS011;6970;51.340;3.240;2023-10-09T11:32:08;8.33;;;5.43;;
13797;SDS011;6970;51.340;3.240;2023-10-09T11:35:09;8.10;;;5.00;;
13797;SDS011;6970;51.340;3.240;2023-10-09T11:37:41;8.30;;;4.80;;
13797;SDS011;6970;51.340;3.240;2023-10-09T11:40:28;8.03;;;4.97;;
13797;SDS011;6970;51.340;3.240;2023-10-09T11:43:17;9.63;;;4.80;;
13797;SDS011;6970;51.340;3.240;2023-10-09T11:45:53;8.17;;;5.07;;
13797;SDS011;6970;51.340;3.240;2023-10-09T11:51:39;8.60;;;4.80;;
13797;SDS011;6970;51.340;3.240;2023-10-09T11:54:33;11.80;;;5.80;;
13797;SDS011;6970;51.340;3.240;2023-10-09T11:57:04;7.50;;;5.40;;
13797;SDS011;6970;51.340;3.240;2023-10-09T12:02:12;6.77;;;5.00;;
13797;SDS011;6970;51.340;3.240;2023-10-09T12:04:42;8.43;;;4.83;;
13797;SDS011;6970;51.340;3.240;2023-10-09T12:07:15;7.93;;;5.07;;
13797;SDS011;6970;51.340;3.240;2023-10-09T12:12:16;7.75;;;5.20;;
13797;SDS011;6970;51.340;3.240;2023-10-09T12:14:48;8.30;;;5.23;;
13797;SDS011;6970;51.340;3.240;2023-10-09T12:17:17;10.60;;;5.70;;
13797;SDS011;6970;51.340;3.240;2023-10-09T12:19:47;8.43;;;5.10;;
13797;SDS011;6970;51.340;3.240;2023-10-09T12:22:20;7.27;;;5.50;;
13797;SDS011;6970;51.340;3.240;2023-10-09T12:24:48;9.07;;;5.43;;
13797;SDS011;6970;51.340;3.240;2023-10-09T12:27:17;5.10;;;4.60;;
13797;SDS011;6970;51.340;3.240;2023-10-09T12:29:47;7.40;;;5.23;;
13797;SDS011;6970;51.340;3.240;2023-10-09T12:34:48;9.43;;;5.57;;
13797;SDS011;6970;51.340;3.240;2023-10-09T12:37:17;6.10;;;5.30;;
13797;SDS011;6970;51.340;3.240;2023-10-09T12:42:23;7.80;;;6.47;;
13797;SDS011;6970;51.340;3.240;2023-10-09T12:44:51;9.07;;;7.77;;
13797;SDS011;6970;51.340;3.240;2023-10-09T12:47:18;9.07;;;8.17;;
13797;SDS011;6970;51.340;3.240;2023-10-09T12:52:32;8.97;;;8.07;;
13797;SDS011;6970;51.340;3.240;2023-10-09T12:55:03;6.83;;;5.90;;
13797;SDS011;6970;51.340;3.240;2023-10-09T12:57:35;7.27;;;5.43;;
13797;SDS011;6970;51.340;3.240;2023-10-09T13:00:03;8.87;;;4.67;;
13797;SDS011;6970;51.340;3.240;2023-10-09T13:02:38;5.77;;;4.93;;
13797;SDS011;6970;51.340;3.240;2023-10-09T13:07:55;6.40;;;4.50;;
13797;SDS011;6970;51.340;3.240;2023-10-09T13:10:26;7.20;;;5.40;;
13797;SDS011;6970;51.340;3.240;2023-10-09T13:15:31;6.03;;;4.40;;
13797;SDS011;6970;51.340;3.240;2023-10-09T13:18:09;5.43;;;4.23;;
13797;SDS011;6970;51.340;3.240;2023-10-09T13:20:36;7.67;;;5.00;;
13797;SDS011;6970;51.340;3.240;2023-10-09T13:23:03;6.57;;;4.90;;
13797;SDS011;6970;51.340;3.240;2023-10-09T13:25:33;6.63;;;4.83;;
13797;SDS011;6970;51.340;3.240;2023-10-09T13:28:08;7.53;;;5.47;;
13797;SDS011;6970;51.340;3.240;2023-10-09T13:30:38;6.10;;;4.50;;
13797;SDS011;6970;51.340;3.240;2023-10-09T13:33:07;5.83;;;4.73;;
13797;SDS011;6970;51.340;3.240;2023-10-09T13:35:37;5.20;;;4.50;;
13797;SDS011;6970;51.340;3.240;2023-10-09T13:38:07;6.47;;;4.37;;
13797;SDS011;6970;51.340;3.240;2023-10-09T13:40:37;6.83;;;4.90;;
13797;SDS011;6970;51.340;3.240;2023-10-09T13:43:04;8.53;;;4.27;;
13797;SDS011;6970;51.340;3.240;2023-10-09T13:45:38;7.80;;;5.20;;
13797;SDS011;6970;51.340;3.240;2023-10-09T13:50:41;9.03;;;5.63;;
13797;SDS011;6970;51.340;3.240;2023-10-09T13:53:11;7.27;;;4.50;;
13797;SDS011;6970;51.340;3.240;2023-10-09T14:00:48;8.73;;;5.23;;
13797;SDS011;6970;51.340;3.240;2023-10-09T14:03:19;7.83;;;5.23;;
13797;SDS011;6970;51.340;3.240;2023-10-09T14:05:51;6.63;;;4.93;;
13797;SDS011;6970;51.340;3.240;2023-10-09T14:08:24;6.73;;;4.10;;
13797;SDS011;6970;51.340;3.240;2023-10-09T14:10:55;6.70;;;4.90;;
13797;SDS011;6970;51.340;3.240;2023-10-09T14:13:25;7.27;;;5.60;;
13797;SDS011;6970;51.340;3.240;2023-10-09T14:15:56;6.83;;;4.67;;
13797;SDS011;6970;51.340;3.240;2023-10-09T14:18:27;7.63;;;4.97;;
13797;SDS011;6970;51.340;3.240;2023-10-09T14:23:45;8.37;;;4.80;;
13797;SDS011;6970;51.340;3.240;2023-10-09T14:26:17;7.23;;;4.47;;
13797;SDS011;6970;51.340;3.240;2023-10-09T14:28:46;5.57;;;5.03;;
13797;SDS011;6970;51.340;3.240;2023-10-09T14:31:16;8.10;;;5.13;;
13797;SDS011;6970;51.340;3.240;2023-10-09T14:33:50;12.07;;;5.73;;
13797;SDS011;6970;51.340;3.240;2023-10-09T14:36:20;5.93;;;4.70;;
13797;SDS011;6970;51.340;3.240;2023-10-09T14:38:57;6.83;;;5.03;;
13797;SDS011;6970;51.340;3.240;2023-10-09T14:41:24;6.80;;;5.07;;
13797;SDS011;6970;51.340;3.240;2023-10-09T14:46:32;8.07;;;5.23;;
13797;SDS011;6970;51.340;3.240;2023-10-09T14:49:00;8.83;;;5.37;;
13797;SDS011;6970;51.340;3.240;2023-10-09T14:51:34;6.70;;;5.23;;
13797;SDS011;6970;51.340;3.240;2023-10-09T14:59:04;8.53;;;5.30;;
13797;SDS011;6970;51.340;3.240;2023-10-09T15:01:33;9.13;;;5.03;;
13797;SDS011;6970;51.340;3.240;2023-10-09T15:04:03;8.47;;;5.10;;
13797;SDS011;6970;51.340;3.240;2023-10-09T15:06:32;5.20;;;4.70;;
13797;SDS011;6970;51.340;3.240;2023-10-09T15:09:01;10.03;;;4.80;;
13797;SDS011;6970;51.340;3.240;2023-10-09T15:11:35;6.07;;;4.67;;
13797;SDS011;6970;51.340;3.240;2023-10-09T15:14:07;7.77;;;4.97;;
13797;SDS011;6970;51.340;3.240;2023-10-09T15:16:36;7.50;;;5.17;;
13797;SDS011;6970;51.340;3.240;2023-10-09T15:19:09;7.13;;;4.67;;
13797;SDS011;6970;51.340;3.240;2023-10-09T15:21:37;9.47;;;5.40;;
13797;SDS011;6970;51.340;3.240;2023-10-09T15:24:15;6.37;;;5.43;;
13797;SDS011;6970;51.340;3.240;2023-10-09T15:26:46;6.03;;;3.90;;
13797;SDS011;6970;51.340;3.240;2023-10-09T15:29:36;4.53;;;4.13;;
13797;SDS011;6970;51.340;3.240;2023-10-09T15:32:11;5.00;;;4.50;;
13797;SDS011;6970;51.340;3.240;2023-10-09T15:34:43;6.00;;;4.87;;
13797;SDS011;6970;51.340;3.240;2023-10-09T15:37:11;9.53;;;4.97;;
13797;SDS011;6970;51.340;3.240;2023-10-09T15:39:40;6.90;;;5.27;;
13797;SDS011;6970;51.340;3.240;2023-10-09T15:42:09;5.23;;;4.73;;
13797;SDS011;6970;51.340;3.240;2023-10-09T15:44:39;6.57;;;5.03;;
13797;SDS011;6970;51.340;3.240;2023-10-09T15:47:09;5.00;;;4.50;;
13797;SDS011;6970;51.340;3.240;2023-10-09T15:49:41;5.73;;;4.43;;
13797;SDS011;6970;51.340;3.240;2023-10-09T15:52:10;7.07;;;4.03;;
13797;SDS011;6970;51.340;3.240;2023-10-09T15:54:40;6.23;;;4.80;;
13797;SDS011;6970;51.340;3.240;2023-10-09T15:57:10;6.00;;;5.37;;
13797;SDS011;6970;51.340;3.240;2023-10-09T16:04:44;5.03;;;4.53;;
13797;SDS011;6970;51.340;3.240;2023-10-09T16:07:12;6.00;;;4.70;;
13797;SDS011;6970;51.340;3.240;2023-10-09T16:09:42;5.83;;;4.60;;
13797;SDS011;6970;51.340;3.240;2023-10-09T16:12:09;5.67;;;4.23;;
13797;SDS011;6970;51.340;3.240;2023-10-09T16:14:39;6.70;;;4.87;;
13797;SDS011;6970;51.340;3.240;2023-10-09T16:17:07;5.60;;;4.43;;
13797;SDS011;6970;51.340;3.240;2023-10-09T16:19:38;8.43;;;5.33;;
13797;SDS011;6970;51.340;3.240;2023-10-09T16:22:10;7.93;;;4.63;;
13797;SDS011;6970;51.340;3.240;2023-10-09T16:24:41;5.93;;;4.60;;
13797;SDS011;6970;51.340;3.240;2023-10-09T16:27:11;4.67;;;4.13;;
13797;SDS011;6970;51.340;3.240;2023-10-09T16:29:44;8.20;;;4.60;;
13797;SDS011;6970;51.340;3.240;2023-10-09T16:37:13;7.47;;;4.90;;
13797;SDS011;6970;51.340;3.240;2023-10-09T16:42:13;5.53;;;4.80;;
13797;SDS011;6970;51.340;3.240;2023-10-09T16:44:40;8.20;;;5.17;;
13797;SDS011;6970;51.340;3.240;2023-10-09T16:49:39;8.10;;;5.47;;
13797;SDS011;6970;51.340;3.240;2023-10-09T16:52:10;8.37;;;6.30;;
13797;SDS011;6970;51.340;3.240;2023-10-09T16:54:38;5.60;;;5.10;;
13797;SDS011;6970;51.340;3.240;2023-10-09T16:57:08;9.40;;;5.43;;
13797;SDS011;6970;51.340;3.240;2023-10-09T16:59:40;7.00;;;5.70;;
13797;SDS011;6970;51.340;3.240;2023-10-09T17:02:08;8.47;;;5.90;;
13797;SDS011;6970;51.340;3.240;2023-10-09T17:04:43;7.83;;;6.10;;
13797;SDS011;6970;51.340;3.240;2023-10-09T17:07:10;6.73;;;5.50;;
13797;SDS011;6970;51.340;3.240;2023-10-09T17:12:16;8.57;;;5.37;;
13797;SDS011;6970;51.340;3.240;2023-10-09T17:14:47;9.20;;;5.30;;
13797;SDS011;6970;51.340;3.240;2023-10-09T17:19:48;7.67;;;5.50;;
13797;SDS011;6970;51.340;3.240;2023-10-09T17:22:15;6.83;;;6.13;;
13797;SDS011;6970;51.340;3.240;2023-10-09T17:24:44;7.47;;;6.27;;
13797;SDS011;6970;51.340;3.240;2023-10-09T17:27:15;8.57;;;5.97;;
13797;SDS011;6970;51.340;3.240;2023-10-09T17:34:49;8.40;;;6.27;;
13797;SDS011;6970;51.340;3.240;2023-10-09T17:37:17;5.70;;;4.97;;
13797;SDS011;6970;51.340;3.240;2023-10-09T17:39:47;9.40;;;5.77;;
13797;SDS011;6970;51.340;3.240;2023-10-09T17:42:21;7.33;;;5.73;;
13797;SDS011;6970;51.340;3.240;2023-10-09T17:44:51;12.97;;;5.67;;
13797;SDS011;6970;51.340;3.240;2023-10-09T17:52:18;5.80;;;5.20;;
13797;SDS011;6970;51.340;3.240;2023-10-09T17:54:48;7.37;;;5.60;;
13797;SDS011;6970;51.340;3.240;2023-10-09T17:57:16;5.97;;;5.23;;
13797;SDS011;6970;51.340;3.240;2023-10-09T18:02:15;6.13;;;5.20;;
13797;SDS011;6970;51.340;3.240;2023-10-09T18:07:16;10.73;;;6.33;;
13797;SDS011;6970;51.340;3.240;2023-10-09T18:09:48;6.53;;;5.50;;
13797;SDS011;6970;51.340;3.240;2023-10-09T18:14:55;8.90;;;6.10;;
13797;SDS011;6970;51.340;3.240;2023-10-09T18:17:26;6.90;;;5.97;;
13797;SDS011;6970;51.340;3.240;2023-10-09T18:19:56;6.77;;;6.07;;
13797;SDS011;6970;51.340;3.240;2023-10-09T18:22:25;9.40;;;6.53;;
13797;SDS011;6970;51.340;3.240;2023-10-09T18:24:55;6.90;;;6.13;;
13797;SDS011;6970;51.340;3.240;2023-10-09T18:27:27;9.40;;;8.40;;
13797;SDS011;6970;51.340;3.240;2023-10-09T18:29:55;8.40;;;7.60;;
13797;SDS011;6970;51.340;3.240;2023-10-09T18:32:28;7.27;;;6.50;;
13797;SDS011;6970;51.340;3.240;2023-10-09T18:34:58;8.50;;;6.70;;
13797;SDS011;6970;51.340;3.240;2023-10-09T18:37:32;9.17;;;6.63;;
13797;SDS011;6970;51.340;3.240;2023-10-09T18:39:59;7.03;;;6.33;;
13797;SDS011;6970;51.340;3.240;2023-10-09T18:42:32;6.87;;;6.27;;
13797;SDS011;6970;51.340;3.240;2023-10-09T18:45:03;7.23;;;6.37;;
13797;SDS011;6970;51.340;3.240;2023-10-09T18:50:14;9.90;;;7.23;;
13797;SDS011;6970;51.340;3.240;2023-10-09T18:52:43;7.70;;;7.00;;
13797;SDS011;6970;51.340;3.240;2023-10-09T18:55:12;6.83;;;6.13;;